sensor_id;sensor_type;location;lat;lon;timestamp;P1;durP1;ratioP1;P2;durP2;ratioP2
64099;SDS011;50385;61.766;38.054;2023-07-22T00:01:59;1999.90;;;905.70;;
64099;SDS011;50385;61.766;38.054;2023-07-22T00:04:26;1999.90;;;935.40;;
64099;SDS011;50385;61.766;38.054;2023-07-22T00:06:53;1999.90;;;951.58;;
64099;SDS011;50385;61.766;38.054;2023-07-22T00:09:20;1999.90;;;922.75;;
64099;SDS011;50385;61.766;38.054;2023-07-22T00:11:48;1999.90;;;999.90;;
64099;SDS011;50385;61.766;38.054;2023-07-22T00:14:17;1999.90;;;942.50;;
64099;SDS011;50385;61.766;38.054;2023-07-22T00:16:43;1999.90;;;999.90;;
64099;SDS011;50385;61.766;38.054;2023-07-22T00:19:10;1999.90;;;837.45;;
64099;SDS011;50385;61.766;38.054;2023-07-22T00:21:38;1999.90;;;999.90;;
64099;SDS011;50385;61.766;38.054;2023-07-22T00:24:05;1999.90;;;999.90;;
64099;SDS011;50385;61.766;38.054;2023-07-22T00:26:32;1999.90;;;999.90;;
64099;SDS011;50385;61.766;38.054;2023-07-22T00:28:59;1999.90;;;999.90;;
64099;SDS011;50385;61.766;38.054;2023-07-22T00:31:27;1999.90;;;999.90;;
64099;SDS011;50385;61.766;38.054;2023-07-22T00:33:53;1999.90;;;999.90;;
64099;SDS011;50385;61.766;38.054;2023-07-22T00:36:21;1999.90;;;999.90;;
64099;SDS011;50385;61.766;38.054;2023-07-22T00:38:47;1999.90;;;999.90;;
64099;SDS011;50385;61.766;38.054;2023-07-22T00:41:14;1999.90;;;999.90;;
64099;SDS011;50385;61.766;38.054;2023-07-22T00:43:41;1999.90;;;999.90;;
64099;SDS011;50385;61.766;38.054;2023-07-22T00:46:08;1999.90;;;997.85;;
64099;SDS011;50385;61.766;38.054;2023-07-22T00:48:34;1999.90;;;999.90;;
64099;SDS011;50385;61.766;38.054;2023-07-22T00:51:02;1999.90;;;999.90;;
64099;SDS011;50385;61.766;38.054;2023-07-22T00:53:28;1999.90;;;999.90;;
64099;SDS011;50385;61.766;38.054;2023-07-22T00:55:55;1999.90;;;999.90;;
64099;SDS011;50385;61.766;38.054;2023-07-22T00:58:22;1999.90;;;999.90;;
64099;SDS011;50385;61.766;38.054;2023-07-22T01:00:49;1999.90;;;999.90;;
64099;SDS011;50385;61.766;38.054;2023-07-22T01:03:16;1999.90;;;999.90;;
64099;SDS011;50385;61.766;38.054;2023-07-22T01:05:45;1999.90;;;999.90;;
64099;SDS011;50385;61.766;38.054;2023-07-22T01:08:13;1999.90;;;999.90;;
64099;SDS011;50385;61.766;38.054;2023-07-22T01:10:40;1999.90;;;999.90;;
64099;SDS011;50385;61.766;38.054;2023-07-22T01:13:08;1999.90;;;999.90;;
64099;SDS011;50385;61.766;38.054;2023-07-22T01:15:35;1999.90;;;999.90;;
64099;SDS011;50385;61.766;38.054;2023-07-22T01:18:04;1999.90;;;999.90;;
64099;SDS011;50385;61.766;38.054;2023-07-22T01:20:31;1999.90;;;999.90;;
64099;SDS011;50385;61.766;38.054;2023-07-22T01:22:58;1999.90;;;999.90;;
64099;SDS011;50385;61.766;38.054;2023-07-22T01:25:25;1999.90;;;999.90;;
64099;SDS011;50385;61.766;38.054;2023-07-22T01:27:52;1999.90;;;999.90;;
64099;SDS011;50385;61.766;38.054;2023-07-22T01:30:19;1999.90;;;999.90;;
64099;SDS011;50385;61.766;38.054;2023-07-22T01:32:46;1999.90;;;999.90;;
64099;SDS011;50385;61.766;38.054;2023-07-22T01:35:13;1999.90;;;999.90;;
64099;SDS011;50385;61.766;38.054;2023-07-22T01:37:41;1999.90;;;999.90;;
64099;SDS011;50385;61.766;38.054;2023-07-22T01:40:08;1999.90;;;999.90;;
64099;SDS011;50385;61.766;38.054;2023-07-22T01:42:38;1999.90;;;999.90;;
64099;SDS011;50385;61.766;38.054;2023-07-22T01:45:06;1999.90;;;999.90;;
64099;SDS011;50385;61.766;38.054;2023-07-22T01:47:37;1653.90;;;592.80;;
64099;SDS011;50385;61.766;38.054;2023-07-22T01:50:05;1999.90;;;999.90;;
64099;SDS011;50385;61.766;38.054;2023-07-22T01:52:32;1999.90;;;999.38;;
64099;SDS011;50385;61.766;38.054;2023-07-22T01:54:59;793.30;;;269.85;;
64099;SDS011;50385;61.766;38.054;2023-07-22T01:57:26;865.17;;;313.95;;
64099;SDS011;50385;61.766;38.054;2023-07-22T01:59:54;1419.55;;;492.23;;
64099;SDS011;50385;61.766;38.054;2023-07-22T02:02:26;1846.97;;;677.03;;
64099;SDS011;50385;61.766;38.054;2023-07-22T02:04:53;1999.90;;;999.90;;
64099;SDS011;50385;61.766;38.054;2023-07-22T02:07:39;1999.90;;;999.90;;
64099;SDS011;50385;61.766;38.054;2023-07-22T02:10:06;1999.90;;;999.90;;
64099;SDS011;50385;61.766;38.054;2023-07-22T02:12:38;1999.90;;;999.90;;
64099;SDS011;50385;61.766;38.054;2023-07-22T02:15:08;1999.90;;;999.90;;
64099;SDS011;50385;61.766;38.054;2023-07-22T02:17:37;1999.90;;;999.90;;
64099;SDS011;50385;61.766;38.054;2023-07-22T02:20:10;1999.90;;;999.90;;
64099;SDS011;50385;61.766;38.054;2023-07-22T02:22:46;1999.90;;;999.90;;
64099;SDS011;50385;61.766;38.054;2023-07-22T02:25:14;1999.90;;;999.90;;
64099;SDS011;50385;61.766;38.054;2023-07-22T02:27:41;731.58;;;189.85;;
64099;SDS011;50385;61.766;38.054;2023-07-22T02:30:08;1999.90;;;999.90;;
64099;SDS011;50385;61.766;38.054;2023-07-22T02:32:38;1999.90;;;999.90;;
64099;SDS011;50385;61.766;38.054;2023-07-22T02:35:08;1999.90;;;999.90;;
64099;SDS011;50385;61.766;38.054;2023-07-22T02:37:41;1999.90;;;999.90;;
64099;SDS011;50385;61.766;38.054;2023-07-22T02:40:08;1999.90;;;999.90;;
64099;SDS011;50385;61.766;38.054;2023-07-22T02:42:37;266.80;;;100.70;;
64099;SDS011;50385;61.766;38.054;2023-07-22T02:45:04;1999.90;;;955.05;;
64099;SDS011;50385;61.766;38.054;2023-07-22T02:47:34;1714.30;;;657.60;;
64099;SDS011;50385;61.766;38.054;2023-07-22T02:50:01;1999.90;;;985.63;;
64099;SDS011;50385;61.766;38.054;2023-07-22T02:52:29;1999.90;;;999.90;;
64099;SDS011;50385;61.766;38.054;2023-07-22T02:55:05;1999.90;;;999.90;;
64099;SDS011;50385;61.766;38.054;2023-07-22T02:57:40;1999.90;;;999.90;;
64099;SDS011;50385;61.766;38.054;2023-07-22T03:00:07;501.58;;;213.30;;
64099;SDS011;50385;61.766;38.054;2023-07-22T03:02:53;1999.90;;;999.90;;
64099;SDS011;50385;61.766;38.054;2023-07-22T03:05:28;1999.90;;;999.90;;
64099;SDS011;50385;61.766;38.054;2023-07-22T03:07:56;1999.90;;;999.90;;
64099;SDS011;50385;61.766;38.054;2023-07-22T03:10:24;1999.90;;;999.90;;
64099;SDS011;50385;61.766;38.054;2023-07-22T03:12:55;1999.90;;;999.90;;
64099;SDS011;50385;61.766;38.054;2023-07-22T03:15:24;1999.90;;;999.90;;
64099;SDS011;50385;61.766;38.054;2023-07-22T03:17:55;193.35;;;84.95;;
64099;SDS011;50385;61.766;38.054;2023-07-22T03:20:22;2.72;;;0.13;;
64099;SDS011;50385;61.766;38.054;2023-07-22T03:22:50;0.10;;;0.10;;
64099;SDS011;50385;61.766;38.054;2023-07-22T03:25:17;1999.90;;;999.90;;
64099;SDS011;50385;61.766;38.054;2023-07-22T03:27:46;1034.57;;;257.45;;
64099;SDS011;50385;61.766;38.054;2023-07-22T03:30:13;1999.90;;;999.90;;
64099;SDS011;50385;61.766;38.054;2023-07-22T03:32:42;1999.90;;;999.90;;
64099;SDS011;50385;61.766;38.054;2023-07-22T03:35:13;1999.90;;;999.90;;
64099;SDS011;50385;61.766;38.054;2023-07-22T03:37:40;1999.90;;;999.90;;
64099;SDS011;50385;61.766;38.054;2023-07-22T03:40:13;1999.90;;;999.90;;
64099;SDS011;50385;61.766;38.054;2023-07-22T03:43:07;1999.90;;;999.90;;
64099;SDS011;50385;61.766;38.054;2023-07-22T03:45:46;1999.90;;;888.40;;
64099;SDS011;50385;61.766;38.054;2023-07-22T03:48:12;1999.90;;;999.90;;
64099;SDS011;50385;61.766;38.054;2023-07-22T03:50:39;1999.90;;;999.90;;
64099;SDS011;50385;61.766;38.054;2023-07-22T03:53:06;1999.90;;;999.90;;
64099;SDS011;50385;61.766;38.054;2023-07-22T03:55:33;1999.90;;;999.90;;
64099;SDS011;50385;61.766;38.054;2023-07-22T03:58:00;1999.90;;;999.90;;
64099;SDS011;50385;61.766;38.054;2023-07-22T04:00:28;50.05;;;16.52;;
64099;SDS011;50385;61.766;38.054;2023-07-22T04:02:55;1.15;;;0.40;;
64099;SDS011;50385;61.766;38.054;2023-07-22T04:05:25;0.32;;;0.20;;
64099;SDS011;50385;61.766;38.054;2023-07-22T04:07:52;1999.90;;;994.92;;
64099;SDS011;50385;61.766;38.054;2023-07-22T04:10:19;1999.90;;;628.28;;
64099;SDS011;50385;61.766;38.054;2023-07-22T04:12:49;7.78;;;2.80;;
64099;SDS011;50385;61.766;38.054;2023-07-22T04:15:17;1999.90;;;710.97;;
64099;SDS011;50385;61.766;38.054;2023-07-22T04:17:44;1316.70;;;414.35;;
64099;SDS011;50385;61.766;38.054;2023-07-22T04:20:11;1.08;;;0.30;;
64099;SDS011;50385;61.766;38.054;2023-07-22T04:22:38;92.57;;;43.85;;
64099;SDS011;50385;61.766;38.054;2023-07-22T04:25:05;834.58;;;359.77;;
64099;SDS011;50385;61.766;38.054;2023-07-22T04:27:32;1433.65;;;557.67;;
64099;SDS011;50385;61.766;38.054;2023-07-22T04:29:59;1999.90;;;999.90;;
64099;SDS011;50385;61.766;38.054;2023-07-22T04:32:26;1999.90;;;999.90;;
64099;SDS011;50385;61.766;38.054;2023-07-22T04:34:52;1999.90;;;999.90;;
64099;SDS011;50385;61.766;38.054;2023-07-22T04:37:20;1999.90;;;999.90;;
64099;SDS011;50385;61.766;38.054;2023-07-22T04:39:50;1999.90;;;999.90;;
64099;SDS011;50385;61.766;38.054;2023-07-22T04:42:17;1999.90;;;999.90;;
64099;SDS011;50385;61.766;38.054;2023-07-22T04:44:44;1999.90;;;999.90;;
64099;SDS011;50385;61.766;38.054;2023-07-22T04:47:11;1999.90;;;999.90;;
64099;SDS011;50385;61.766;38.054;2023-07-22T04:49:38;1999.90;;;999.90;;
64099;SDS011;50385;61.766;38.054;2023-07-22T04:52:07;1558.38;;;486.05;;
64099;SDS011;50385;61.766;38.054;2023-07-22T04:54:37;1999.90;;;999.90;;
64099;SDS011;50385;61.766;38.054;2023-07-22T04:57:04;15.40;;;5.28;;
64099;SDS011;50385;61.766;38.054;2023-07-22T04:59:31;160.00;;;46.28;;
64099;SDS011;50385;61.766;38.054;2023-07-22T05:02:01;1999.90;;;999.90;;
64099;SDS011;50385;61.766;38.054;2023-07-22T05:04:35;1999.90;;;824.65;;
64099;SDS011;50385;61.766;38.054;2023-07-22T05:07:10;182.55;;;84.75;;
64099;SDS011;50385;61.766;38.054;2023-07-22T05:10:00;1271.45;;;548.47;;
64099;SDS011;50385;61.766;38.054;2023-07-22T05:12:30;303.95;;;116.38;;
64099;SDS011;50385;61.766;38.054;2023-07-22T05:15:28;705.67;;;286.02;;
64099;SDS011;50385;61.766;38.054;2023-07-22T05:17:55;1262.00;;;563.92;;
64099;SDS011;50385;61.766;38.054;2023-07-22T05:20:22;492.25;;;198.38;;
64099;SDS011;50385;61.766;38.054;2023-07-22T05:22:48;1996.90;;;750.45;;
64099;SDS011;50385;61.766;38.054;2023-07-22T05:25:16;1999.90;;;998.50;;
64099;SDS011;50385;61.766;38.054;2023-07-22T05:27:43;1999.90;;;937.17;;
64099;SDS011;50385;61.766;38.054;2023-07-22T05:30:10;1999.90;;;999.90;;
64099;SDS011;50385;61.766;38.054;2023-07-22T05:32:37;1999.90;;;578.78;;
64099;SDS011;50385;61.766;38.054;2023-07-22T05:35:04;30.55;;;6.78;;
64099;SDS011;50385;61.766;38.054;2023-07-22T05:37:31;877.28;;;292.75;;
64099;SDS011;50385;61.766;38.054;2023-07-22T05:39:59;469.63;;;133.75;;
64099;SDS011;50385;61.766;38.054;2023-07-22T05:42:26;1498.82;;;560.53;;
64099;SDS011;50385;61.766;38.054;2023-07-22T05:44:54;1672.63;;;601.92;;
64099;SDS011;50385;61.766;38.054;2023-07-22T05:47:27;1593.35;;;577.65;;
64099;SDS011;50385;61.766;38.054;2023-07-22T05:49:54;1652.93;;;595.55;;
64099;SDS011;50385;61.766;38.054;2023-07-22T05:52:21;1999.90;;;730.28;;
64099;SDS011;50385;61.766;38.054;2023-07-22T05:54:47;1422.85;;;518.90;;
64099;SDS011;50385;61.766;38.054;2023-07-22T06:01:18;1999.90;;;890.58;;
64099;SDS011;50385;61.766;38.054;2023-07-22T06:03:46;1773.30;;;645.08;;
64099;SDS011;50385;61.766;38.054;2023-07-22T06:06:13;1987.20;;;727.30;;
64099;SDS011;50385;61.766;38.054;2023-07-22T06:08:39;1879.70;;;693.38;;
64099;SDS011;50385;61.766;38.054;2023-07-22T06:11:09;1515.82;;;540.25;;
64099;SDS011;50385;61.766;38.054;2023-07-22T06:13:36;1999.90;;;855.85;;
64099;SDS011;50385;61.766;38.054;2023-07-22T06:16:05;1999.90;;;847.00;;
64099;SDS011;50385;61.766;38.054;2023-07-22T06:18:56;1999.90;;;938.97;;
64099;SDS011;50385;61.766;38.054;2023-07-22T06:21:35;1999.90;;;906.75;;
64099;SDS011;50385;61.766;38.054;2023-07-22T06:24:29;1999.90;;;809.83;;
64099;SDS011;50385;61.766;38.054;2023-07-22T06:27:10;1999.90;;;971.80;;
64099;SDS011;50385;61.766;38.054;2023-07-22T06:29:38;1999.90;;;786.17;;
64099;SDS011;50385;61.766;38.054;2023-07-22T06:32:06;1999.90;;;940.28;;
64099;SDS011;50385;61.766;38.054;2023-07-22T06:34:46;1999.90;;;982.45;;
64099;SDS011;50385;61.766;38.054;2023-07-22T06:37:16;1999.90;;;757.83;;
64099;SDS011;50385;61.766;38.054;2023-07-22T06:40:10;1084.78;;;422.58;;
64099;SDS011;50385;61.766;38.054;2023-07-22T06:42:37;1156.18;;;443.58;;
64099;SDS011;50385;61.766;38.054;2023-07-22T06:45:04;1999.90;;;829.08;;
64099;SDS011;50385;61.766;38.054;2023-07-22T06:47:34;1895.43;;;697.45;;
64099;SDS011;50385;61.766;38.054;2023-07-22T06:50:48;1999.90;;;773.20;;
64099;SDS011;50385;61.766;38.054;2023-07-22T06:53:20;1501.57;;;533.83;;
64099;SDS011;50385;61.766;38.054;2023-07-22T06:55:48;1063.25;;;359.65;;
64099;SDS011;50385;61.766;38.054;2023-07-22T06:58:16;840.38;;;300.90;;
64099;SDS011;50385;61.766;38.054;2023-07-22T07:00:43;926.53;;;329.85;;
64099;SDS011;50385;61.766;38.054;2023-07-22T07:03:16;491.67;;;158.63;;
64099;SDS011;50385;61.766;38.054;2023-07-22T07:05:43;34.22;;;12.25;;
64099;SDS011;50385;61.766;38.054;2023-07-22T07:08:10;20.33;;;6.80;;
64099;SDS011;50385;61.766;38.054;2023-07-22T07:10:39;6.47;;;3.08;;
64099;SDS011;50385;61.766;38.054;2023-07-22T07:13:28;34.28;;;12.80;;
64099;SDS011;50385;61.766;38.054;2023-07-22T07:16:50;16.45;;;5.05;;
64099;SDS011;50385;61.766;38.054;2023-07-22T07:19:21;32.30;;;12.05;;
64099;SDS011;50385;61.766;38.054;2023-07-22T07:21:53;199.98;;;57.70;;
64099;SDS011;50385;61.766;38.054;2023-07-22T07:24:30;277.15;;;92.88;;
64099;SDS011;50385;61.766;38.054;2023-07-22T07:27:03;453.38;;;127.70;;
64099;SDS011;50385;61.766;38.054;2023-07-22T07:29:30;0.10;;;0.10;;
64099;SDS011;50385;61.766;38.054;2023-07-22T07:32:00;1591.30;;;561.28;;
64099;SDS011;50385;61.766;38.054;2023-07-22T07:34:28;707.42;;;257.77;;
64099;SDS011;50385;61.766;38.054;2023-07-22T07:37:02;364.60;;;115.28;;
64099;SDS011;50385;61.766;38.054;2023-07-22T07:39:30;911.22;;;265.58;;
64099;SDS011;50385;61.766;38.054;2023-07-22T07:41:57;875.58;;;299.63;;
64099;SDS011;50385;61.766;38.054;2023-07-22T07:44:50;1078.38;;;414.40;;
64099;SDS011;50385;61.766;38.054;2023-07-22T07:47:22;1999.90;;;999.90;;
64099;SDS011;50385;61.766;38.054;2023-07-22T07:49:51;1999.90;;;983.20;;
64099;SDS011;50385;61.766;38.054;2023-07-22T07:52:18;1999.90;;;999.90;;
64099;SDS011;50385;61.766;38.054;2023-07-22T07:54:47;738.28;;;287.42;;
64099;SDS011;50385;61.766;38.054;2023-07-22T07:57:34;1999.90;;;999.90;;
64099;SDS011;50385;61.766;38.054;2023-07-22T08:00:01;1999.90;;;999.90;;
64099;SDS011;50385;61.766;38.054;2023-07-22T08:02:31;1898.68;;;724.00;;
64099;SDS011;50385;61.766;38.054;2023-07-22T08:04:58;1999.90;;;966.92;;
64099;SDS011;50385;61.766;38.054;2023-07-22T08:07:25;1999.90;;;999.90;;
64099;SDS011;50385;61.766;38.054;2023-07-22T08:09:53;1999.90;;;999.90;;
64099;SDS011;50385;61.766;38.054;2023-07-22T08:12:31;1999.90;;;999.90;;
64099;SDS011;50385;61.766;38.054;2023-07-22T08:18:11;1999.90;;;999.90;;
64099;SDS011;50385;61.766;38.054;2023-07-22T08:21:07;1999.90;;;999.90;;
64099;SDS011;50385;61.766;38.054;2023-07-22T08:24:11;1999.90;;;999.90;;
64099;SDS011;50385;61.766;38.054;2023-07-22T08:26:38;1999.90;;;958.20;;
64099;SDS011;50385;61.766;38.054;2023-07-22T08:29:05;1999.90;;;994.03;;
64099;SDS011;50385;61.766;38.054;2023-07-22T08:34:45;0.20;;;0.20;;
64099;SDS011;50385;61.766;38.054;2023-07-22T08:47:17;1131.85;;;387.63;;
64099;SDS011;50385;61.766;38.054;2023-07-22T08:49:52;4.03;;;1.75;;
64099;SDS011;50385;61.766;38.054;2023-07-22T08:52:35;5.47;;;1.40;;
64099;SDS011;50385;61.766;38.054;2023-07-22T08:55:02;161.40;;;54.70;;
64099;SDS011;50385;61.766;38.054;2023-07-22T08:57:31;160.23;;;56.50;;
64099;SDS011;50385;61.766;38.054;2023-07-22T08:59:59;640.25;;;245.38;;
64099;SDS011;50385;61.766;38.054;2023-07-22T09:02:26;1999.90;;;999.90;;
64099;SDS011;50385;61.766;38.054;2023-07-22T09:04:53;114.60;;;47.50;;
64099;SDS011;50385;61.766;38.054;2023-07-22T09:10:28;214.93;;;68.43;;
64099;SDS011;50385;61.766;38.054;2023-07-22T09:12:56;1429.38;;;566.20;;
64099;SDS011;50385;61.766;38.054;2023-07-22T09:15:23;1999.90;;;999.90;;
64099;SDS011;50385;61.766;38.054;2023-07-22T09:17:50;1999.90;;;999.90;;
64099;SDS011;50385;61.766;38.054;2023-07-22T09:20:17;1999.90;;;999.90;;
64099;SDS011;50385;61.766;38.054;2023-07-22T09:22:47;1999.90;;;999.90;;
64099;SDS011;50385;61.766;38.054;2023-07-22T09:27:43;1999.90;;;999.90;;
64099;SDS011;50385;61.766;38.054;2023-07-22T09:33:20;1999.90;;;999.90;;
64099;SDS011;50385;61.766;38.054;2023-07-22T09:39:21;1999.90;;;999.90;;
64099;SDS011;50385;61.766;38.054;2023-07-22T09:41:48;1999.90;;;755.95;;
64099;SDS011;50385;61.766;38.054;2023-07-22T09:48:14;1999.90;;;999.90;;
64099;SDS011;50385;61.766;38.054;2023-07-22T09:50:41;1999.90;;;999.90;;
64099;SDS011;50385;61.766;38.054;2023-07-22T09:53:14;1999.90;;;997.45;;
64099;SDS011;50385;61.766;38.054;2023-07-22T09:55:42;1999.90;;;999.90;;
64099;SDS011;50385;61.766;38.054;2023-07-22T09:58:11;1999.90;;;999.90;;
64099;SDS011;50385;61.766;38.054;2023-07-22T10:00:41;1999.90;;;999.90;;
64099;SDS011;50385;61.766;38.054;2023-07-22T10:03:09;1999.90;;;999.90;;
64099;SDS011;50385;61.766;38.054;2023-07-22T10:05:38;1999.90;;;999.90;;
64099;SDS011;50385;61.766;38.054;2023-07-22T10:08:08;1833.70;;;752.85;;
64099;SDS011;50385;61.766;38.054;2023-07-22T10:10:39;0.35;;;0.20;;
64099;SDS011;50385;61.766;38.054;2023-07-22T10:13:09;0.47;;;0.40;;
64099;SDS011;50385;61.766;38.054;2023-07-22T10:15:36;567.95;;;237.02;;
64099;SDS011;50385;61.766;38.054;2023-07-22T10:18:04;361.17;;;150.43;;
64099;SDS011;50385;61.766;38.054;2023-07-22T10:20:31;582.08;;;235.00;;
64099;SDS011;50385;61.766;38.054;2023-07-22T10:23:02;264.27;;;100.65;;
64099;SDS011;50385;61.766;38.054;2023-07-22T10:25:30;856.17;;;345.55;;
64099;SDS011;50385;61.766;38.054;2023-07-22T10:27:57;1500.85;;;602.22;;
64099;SDS011;50385;61.766;38.054;2023-07-22T10:30:24;1169.75;;;459.83;;
64099;SDS011;50385;61.766;38.054;2023-07-22T10:32:52;785.60;;;329.92;;
64099;SDS011;50385;61.766;38.054;2023-07-22T10:38:14;517.13;;;208.07;;
64099;SDS011;50385;61.766;38.054;2023-07-22T10:40:45;1248.97;;;502.70;;
64099;SDS011;50385;61.766;38.054;2023-07-22T10:43:17;1957.97;;;735.00;;
64099;SDS011;50385;61.766;38.054;2023-07-22T10:45:52;1999.90;;;999.90;;
64099;SDS011;50385;61.766;38.054;2023-07-22T10:48:21;1999.90;;;999.90;;
64099;SDS011;50385;61.766;38.054;2023-07-22T10:50:50;1979.60;;;701.50;;
64099;SDS011;50385;61.766;38.054;2023-07-22T11:04:23;966.33;;;356.25;;
64099;SDS011;50385;61.766;38.054;2023-07-22T11:07:05;85.43;;;26.55;;
64099;SDS011;50385;61.766;38.054;2023-07-22T11:09:33;139.15;;;28.52;;
64099;SDS011;50385;61.766;38.054;2023-07-22T11:12:01;5.53;;;4.38;;
64099;SDS011;50385;61.766;38.054;2023-07-22T11:15:03;6.07;;;2.50;;
64099;SDS011;50385;61.766;38.054;2023-07-22T11:17:34;0.20;;;0.20;;
64099;SDS011;50385;61.766;38.054;2023-07-22T11:20:01;2.55;;;2.05;;
64099;SDS011;50385;61.766;38.054;2023-07-22T11:22:30;6.72;;;1.75;;
64099;SDS011;50385;61.766;38.054;2023-07-22T11:24:57;19.83;;;6.40;;
64099;SDS011;50385;61.766;38.054;2023-07-22T11:27:24;60.10;;;14.70;;
64099;SDS011;50385;61.766;38.054;2023-07-22T11:29:51;129.38;;;31.42;;
64099;SDS011;50385;61.766;38.054;2023-07-22T11:32:19;49.28;;;16.00;;
64099;SDS011;50385;61.766;38.054;2023-07-22T11:34:52;5.50;;;1.83;;
64099;SDS011;50385;61.766;38.054;2023-07-22T11:37:19;35.50;;;12.07;;
64099;SDS011;50385;61.766;38.054;2023-07-22T11:39:45;9.73;;;3.53;;
64099;SDS011;50385;61.766;38.054;2023-07-22T11:42:13;5.35;;;2.38;;
64099;SDS011;50385;61.766;38.054;2023-07-22T11:44:39;3.72;;;2.38;;
64099;SDS011;50385;61.766;38.054;2023-07-22T11:47:07;0.95;;;0.73;;
64099;SDS011;50385;61.766;38.054;2023-07-22T11:49:38;0.55;;;0.32;;
64099;SDS011;50385;61.766;38.054;2023-07-22T11:52:11;0.70;;;0.70;;
64099;SDS011;50385;61.766;38.054;2023-07-22T11:57:24;0.40;;;0.40;;
64099;SDS011;50385;61.766;38.054;2023-07-22T11:59:52;0.38;;;0.38;;
64099;SDS011;50385;61.766;38.054;2023-07-22T12:02:20;0.45;;;0.30;;
64099;SDS011;50385;61.766;38.054;2023-07-22T12:05:04;0.20;;;0.20;;
64099;SDS011;50385;61.766;38.054;2023-07-22T12:07:32;1.75;;;0.40;;
64099;SDS011;50385;61.766;38.054;2023-07-22T12:10:01;0.40;;;0.40;;
64099;SDS011;50385;61.766;38.054;2023-07-22T12:15:12;309.20;;;128.23;;
64099;SDS011;50385;61.766;38.054;2023-07-22T12:17:58;134.32;;;58.42;;
64099;SDS011;50385;61.766;38.054;2023-07-22T12:20:29;207.88;;;86.78;;
64099;SDS011;50385;61.766;38.054;2023-07-22T12:22:57;140.63;;;42.47;;
64099;SDS011;50385;61.766;38.054;2023-07-22T12:25:26;391.80;;;142.77;;
64099;SDS011;50385;61.766;38.054;2023-07-22T12:27:53;18.77;;;6.75;;
64099;SDS011;50385;61.766;38.054;2023-07-22T12:30:20;110.57;;;40.60;;
64099;SDS011;50385;61.766;38.054;2023-07-22T12:32:48;628.22;;;207.68;;
64099;SDS011;50385;61.766;38.054;2023-07-22T12:35:15;807.65;;;320.38;;
64099;SDS011;50385;61.766;38.054;2023-07-22T12:37:42;818.70;;;277.38;;
64099;SDS011;50385;61.766;38.054;2023-07-22T12:40:09;587.95;;;234.98;;
64099;SDS011;50385;61.766;38.054;2023-07-22T12:42:38;890.75;;;355.63;;
64099;SDS011;50385;61.766;38.054;2023-07-22T12:45:05;1999.90;;;875.10;;
64099;SDS011;50385;61.766;38.054;2023-07-22T12:47:32;1480.30;;;605.20;;
64099;SDS011;50385;61.766;38.054;2023-07-22T12:49:59;1999.90;;;999.90;;
64099;SDS011;50385;61.766;38.054;2023-07-22T12:52:26;1999.90;;;951.65;;
64099;SDS011;50385;61.766;38.054;2023-07-22T12:54:53;1999.90;;;907.13;;
64099;SDS011;50385;61.766;38.054;2023-07-22T12:57:20;1999.90;;;872.95;;
64099;SDS011;50385;61.766;38.054;2023-07-22T12:59:47;1952.60;;;781.03;;
64099;SDS011;50385;61.766;38.054;2023-07-22T13:02:15;1999.90;;;814.78;;
64099;SDS011;50385;61.766;38.054;2023-07-22T13:04:42;1999.90;;;997.00;;
64099;SDS011;50385;61.766;38.054;2023-07-22T13:07:10;1999.90;;;999.90;;
64099;SDS011;50385;61.766;38.054;2023-07-22T13:09:45;259.20;;;94.25;;
64099;SDS011;50385;61.766;38.054;2023-07-22T13:12:15;593.67;;;300.10;;
64099;SDS011;50385;61.766;38.054;2023-07-22T13:14:45;1129.68;;;458.05;;
64099;SDS011;50385;61.766;38.054;2023-07-22T13:17:13;1208.93;;;480.38;;
64099;SDS011;50385;61.766;38.054;2023-07-22T13:19:43;1248.82;;;518.95;;
64099;SDS011;50385;61.766;38.054;2023-07-22T13:22:11;1259.18;;;515.83;;
64099;SDS011;50385;61.766;38.054;2023-07-22T13:24:38;1932.78;;;743.17;;
64099;SDS011;50385;61.766;38.054;2023-07-22T13:27:05;1894.70;;;735.40;;
64099;SDS011;50385;61.766;38.054;2023-07-22T13:29:33;1998.47;;;721.65;;
64099;SDS011;50385;61.766;38.054;2023-07-22T13:32:00;1999.90;;;999.90;;
64099;SDS011;50385;61.766;38.054;2023-07-22T13:34:27;1999.90;;;999.90;;
64099;SDS011;50385;61.766;38.054;2023-07-22T13:36:54;1999.90;;;999.90;;
64099;SDS011;50385;61.766;38.054;2023-07-22T13:39:22;1999.90;;;999.90;;
64099;SDS011;50385;61.766;38.054;2023-07-22T13:41:51;1999.90;;;999.90;;
64099;SDS011;50385;61.766;38.054;2023-07-22T13:44:17;1999.90;;;978.65;;
64099;SDS011;50385;61.766;38.054;2023-07-22T13:46:44;1999.90;;;959.75;;
64099;SDS011;50385;61.766;38.054;2023-07-22T13:49:11;1999.90;;;854.25;;
64099;SDS011;50385;61.766;38.054;2023-07-22T13:51:38;1999.90;;;999.90;;
64099;SDS011;50385;61.766;38.054;2023-07-22T13:54:05;1999.90;;;999.90;;
64099;SDS011;50385;61.766;38.054;2023-07-22T13:56:32;1999.90;;;999.90;;
64099;SDS011;50385;61.766;38.054;2023-07-22T13:58:59;1999.90;;;999.90;;
64099;SDS011;50385;61.766;38.054;2023-07-22T14:01:31;1999.90;;;999.10;;
64099;SDS011;50385;61.766;38.054;2023-07-22T14:03:58;1999.90;;;999.90;;
64099;SDS011;50385;61.766;38.054;2023-07-22T14:06:30;1999.90;;;999.90;;
64099;SDS011;50385;61.766;38.054;2023-07-22T14:09:02;1999.90;;;999.90;;
64099;SDS011;50385;61.766;38.054;2023-07-22T14:11:37;1999.90;;;999.90;;
64099;SDS011;50385;61.766;38.054;2023-07-22T14:18:13;1999.90;;;999.90;;
64099;SDS011;50385;61.766;38.054;2023-07-22T14:20:44;1999.90;;;999.90;;
64099;SDS011;50385;61.766;38.054;2023-07-22T14:23:11;1999.90;;;999.90;;
64099;SDS011;50385;61.766;38.054;2023-07-22T14:29:49;1999.90;;;999.90;;
64099;SDS011;50385;61.766;38.054;2023-07-22T14:32:25;1999.90;;;999.90;;
64099;SDS011;50385;61.766;38.054;2023-07-22T14:34:56;1999.90;;;999.90;;
64099;SDS011;50385;61.766;38.054;2023-07-22T14:37:23;1999.90;;;999.90;;
64099;SDS011;50385;61.766;38.054;2023-07-22T14:39:50;617.92;;;243.02;;
64099;SDS011;50385;61.766;38.054;2023-07-22T14:42:17;9.00;;;2.65;;
64099;SDS011;50385;61.766;38.054;2023-07-22T14:44:44;7.45;;;0.80;;
64099;SDS011;50385;61.766;38.054;2023-07-22T14:47:11;251.15;;;104.68;;
64099;SDS011;50385;61.766;38.054;2023-07-22T14:49:38;39.42;;;9.85;;
64099;SDS011;50385;61.766;38.054;2023-07-22T14:52:14;61.15;;;10.70;;
64099;SDS011;50385;61.766;38.054;2023-07-22T14:54:58;2.72;;;1.38;;
64099;SDS011;50385;61.766;38.054;2023-07-22T14:57:25;1.08;;;0.65;;
64099;SDS011;50385;61.766;38.054;2023-07-22T15:07:15;860.58;;;341.17;;
64099;SDS011;50385;61.766;38.054;2023-07-22T15:09:42;489.65;;;150.38;;
64099;SDS011;50385;61.766;38.054;2023-07-22T15:12:09;834.85;;;296.13;;